Time;durP1;ratioP1;P1;durP2;ratioP2;P2;SDS_P1;SDS_P2;PMS_P1;PMS_P2;Temp;Humidity;BMP_temperature;BMP_pressure;BME280_temperature;BME280_humidity;BME280_pressure;Samples;Min_cycle;Max_cycle;Signal;HPM_P1;HPM_P2
2023/12/23 00:00:13;;;;;;;11.70;3.03;;;5.60;99.90;;;;;;5063689;28;20178;-91
2023/12/23 00:02:38;;;;;;;15.27;3.42;;;5.60;99.90;;;;;;5058078;28;20177;-91
2023/12/23 00:05:04;;;;;;;13.07;3.00;;;5.50;99.90;;;;;;5062454;28;20060;-91
2023/12/23 00:07:30;;;;;;;11.02;2.80;;;5.40;99.90;;;;;;5060943;28;20025;-91
2023/12/23 00:09:56;;;;;;;12.27;3.17;;;5.40;99.90;;;;;;5055274;28;20055;-92
2023/12/23 00:12:22;;;;;;;11.75;3.53;;;5.40;99.90;;;;;;5062271;28;20178;-93
2023/12/23 00:14:47;;;;;;;12.88;2.97;;;5.30;99.90;;;;;;5058866;28;20093;-89
2023/12/23 00:17:13;;;;;;;11.45;3.08;;;5.30;99.90;;;;;;5030324;28;20025;-91
2023/12/23 00:19:39;;;;;;;14.38;2.95;;;5.20;99.90;;;;;;5043063;28;20029;-91
2023/12/23 00:22:04;;;;;;;12.05;2.70;;;5.20;99.90;;;;;;5060129;28;20032;-91
2023/12/23 00:24:31;;;;;;;10.20;2.70;;;5.20;99.90;;;;;;5045942;28;20040;-91
2023/12/23 00:26:57;;;;;;;10.10;2.45;;;5.20;99.90;;;;;;5040122;28;20032;-92
2023/12/23 00:29:29;;;;;;;12.30;2.58;;;5.20;99.90;;;;;;5059304;28;20028;-91
2023/12/23 00:31:55;;;;;;;13.32;2.40;;;5.20;99.90;;;;;;5044783;28;20051;-92
2023/12/23 00:34:20;;;;;;;11.13;3.00;;;5.30;99.90;;;;;;5043854;28;20843;-92
2023/12/23 00:36:46;;;;;;;10.60;2.40;;;5.30;99.90;;;;;;5072769;28;20039;-91
2023/12/23 00:39:12;;;;;;;9.85;2.10;;;5.40;99.90;;;;;;5050251;28;20055;-91
2023/12/23 00:41:38;;;;;;;11.70;2.20;;;5.30;99.90;;;;;;5064816;28;20051;-92
2023/12/23 00:44:04;;;;;;;11.02;2.70;;;5.40;99.90;;;;;;5031312;28;20033;-92
2023/12/23 00:46:30;;;;;;;11.90;2.42;;;5.40;99.90;;;;;;5041796;28;20032;-90
2023/12/23 00:48:55;;;;;;;12.10;2.33;;;5.30;99.90;;;;;;5023364;28;20072;-91
2023/12/23 00:51:21;;;;;;;14.07;2.60;;;5.30;99.90;;;;;;5045529;28;20187;-92
2023/12/23 00:53:47;;;;;;;11.27;2.58;;;5.30;99.90;;;;;;5034499;28;20033;-91
2023/12/23 00:56:20;;;;;;;15.43;2.88;;;5.30;99.90;;;;;;5041614;28;20033;-91
2023/12/23 00:58:46;;;;;;;13.32;3.20;;;5.30;99.90;;;;;;5059884;28;20055;-90
2023/12/23 01:01:12;;;;;;;12.68;2.90;;;5.30;99.90;;;;;;5042657;28;20065;-91
2023/12/23 01:03:38;;;;;;;14.30;3.08;;;5.30;99.90;;;;;;5021434;28;20071;-91
2023/12/23 01:06:03;;;;;;;13.27;2.90;;;5.30;99.90;;;;;;5022300;28;20036;-91
2023/12/23 01:08:30;;;;;;;15.80;3.15;;;5.30;99.90;;;;;;5028673;28;20035;-91
2023/12/23 01:10:56;;;;;;;12.98;2.45;;;5.30;99.90;;;;;;5015558;28;20040;-91
2023/12/23 01:13:22;;;;;;;17.15;3.45;;;5.30;99.90;;;;;;5046979;28;20045;-91
2023/12/23 01:15:48;;;;;;;15.40;3.42;;;5.30;99.90;;;;;;5051040;28;20025;-91
2023/12/23 01:18:14;;;;;;;13.60;3.15;;;5.30;99.90;;;;;;5029494;28;20041;-91
2023/12/23 01:20:42;;;;;;;16.58;3.30;;;5.30;99.90;;;;;;5045737;28;20033;-91
2023/12/23 01:23:10;;;;;;;17.92;3.30;;;5.60;99.90;;;;;;5046903;28;20387;-93
2023/12/23 01:25:36;;;;;;;14.27;3.10;;;5.40;99.90;;;;;;5030801;28;20040;-90
2023/12/23 01:28:04;;;;;;;12.93;3.00;;;5.50;99.90;;;;;;5043313;28;20275;-91
2023/12/23 01:30:33;;;;;;;14.57;3.10;;;5.50;99.90;;;;;;5008613;28;20025;-91
2023/12/23 01:33:00;;;;;;;17.10;3.35;;;5.80;99.90;;;;;;5045713;28;20036;-91
2023/12/23 01:35:25;;;;;;;14.40;3.55;;;5.50;99.90;;;;;;5059387;28;20026;-92
2023/12/23 01:37:51;;;;;;;13.65;2.60;;;5.50;99.90;;;;;;5044187;28;20056;-91
2023/12/23 01:40:17;;;;;;;20.25;3.70;;;5.70;99.90;;;;;;5049796;28;20099;-91
2023/12/23 01:42:43;;;;;;;15.98;3.25;;;5.60;99.90;;;;;;5059334;28;20047;-91
2023/12/23 01:45:10;;;;;;;12.32;2.88;;;5.50;99.90;;;;;;5058163;28;20060;-91
2023/12/23 01:47:43;;;;;;;14.15;2.72;;;5.50;99.90;;;;;;5078557;28;20150;-91
2023/12/23 01:50:10;;;;;;;12.45;3.22;;;5.50;99.90;;;;;;5080157;28;20458;-91
2023/12/23 01:52:38;;;;;;;13.88;2.63;;;5.80;99.90;;;;;;5081053;28;20036;-91
2023/12/23 01:55:08;;;;;;;12.98;2.65;;;5.50;99.90;;;;;;5066384;28;20262;-91
2023/12/23 01:57:34;;;;;;;12.18;2.50;;;5.60;99.90;;;;;;5047245;28;20029;-91
2023/12/23 02:00:01;;;;;;;11.98;2.50;;;5.60;99.90;;;;;;5079306;28;20052;-91
2023/12/23 02:02:28;;;;;;;10.73;2.40;;;5.60;99.90;;;;;;5063441;28;20043;-90
2023/12/23 02:04:55;;;;;;;9.80;2.22;;;5.60;99.90;;;;;;5077382;28;20037;-91
2023/12/23 02:07:21;;;;;;;11.10;2.40;;;5.60;99.90;;;;;;5043457;28;20024;-92
2023/12/23 02:09:47;;;;;;;11.13;2.50;;;5.60;99.90;;;;;;5046997;28;20039;-91
2023/12/23 02:12:45;;;;;;;11.88;2.78;;;5.70;99.90;;;;;;5049459;28;20075;-91
2023/12/23 02:15:14;;;;;;;12.13;2.25;;;5.70;99.90;;;;;;5070745;28;20087;-91
2023/12/23 02:17:40;;;;;;;12.20;3.17;;;5.70;99.90;;;;;;5079338;28;20198;-90
2023/12/23 02:20:07;;;;;;;12.07;2.50;;;5.70;99.90;;;;;;5078947;28;20028;-91
2023/12/23 02:22:33;;;;;;;9.10;1.98;;;5.70;99.90;;;;;;5061211;28;20105;-92
2023/12/23 02:24:58;;;;;;;10.32;2.63;;;5.80;99.90;;;;;;5050024;28;20040;-91
2023/12/23 02:27:43;;;;;;;9.10;2.55;;;5.90;99.90;;;;;;5044069;28;20091;-91
2023/12/23 02:30:12;;;;;;;11.80;2.00;;;5.90;99.90;;;;;;5064641;28;20763;-90
2023/12/23 02:32:40;;;;;;;10.50;2.35;;;5.90;99.90;;;;;;5064446;28;20440;-91
2023/12/23 02:35:07;;;;;;;9.88;2.28;;;5.90;99.90;;;;;;5063294;28;20347;-91
2023/12/23 02:37:32;;;;;;;8.80;2.00;;;5.90;99.90;;;;;;5047853;28;20301;-92
2023/12/23 02:39:59;;;;;;;11.90;2.78;;;5.90;99.90;;;;;;5065795;28;20111;-92
2023/12/23 02:42:25;;;;;;;7.65;2.50;;;5.90;99.90;;;;;;5066937;28;20028;-92
2023/12/23 02:44:51;;;;;;;11.20;2.33;;;5.90;99.90;;;;;;5051116;28;20036;-91
2023/12/23 02:47:16;;;;;;;11.43;2.78;;;5.90;99.90;;;;;;5071064;28;20103;-91
2023/12/23 02:49:42;;;;;;;8.07;1.80;;;5.80;99.90;;;;;;5051230;28;20028;-91
2023/12/23 02:52:08;;;;;;;11.55;2.50;;;5.80;99.90;;;;;;5033624;28;20178;-91
2023/12/23 02:54:34;;;;;;;8.32;1.98;;;5.80;99.90;;;;;;5051978;28;20041;-91
2023/12/23 02:56:59;;;;;;;13.05;2.33;;;5.80;99.90;;;;;;5049536;28;20088;-91
2023/12/23 02:59:25;;;;;;;12.02;2.50;;;5.80;99.90;;;;;;5029810;28;20319;-91
2023/12/23 03:01:51;;;;;;;10.70;2.28;;;6.50;99.90;;;;;;5035083;28;20027;-90
2023/12/23 03:04:16;;;;;;;12.57;2.25;;;5.80;99.90;;;;;;5055202;28;20331;-90
2023/12/23 03:06:42;;;;;;;11.30;2.10;;;5.90;99.90;;;;;;5078627;28;20024;-91
2023/12/23 03:09:08;;;;;;;9.02;2.13;;;5.80;99.90;;;;;;5052780;28;20044;-91
2023/12/23 03:11:34;;;;;;;10.40;2.45;;;5.80;99.90;;;;;;5034672;28;20032;-92
2023/12/23 03:14:00;;;;;;;9.27;2.22;;;5.80;99.90;;;;;;5051907;28;20056;-91
2023/12/23 03:16:33;;;;;;;10.50;2.33;;;5.70;99.90;;;;;;5052684;28;20078;-92
2023/12/23 03:19:02;;;;;;;8.20;1.90;;;5.70;99.90;;;;;;5081291;28;20054;-91
2023/12/23 03:21:29;;;;;;;12.27;2.25;;;5.60;99.90;;;;;;5047618;28;20323;-91
2023/12/23 03:23:54;;;;;;;11.55;2.50;;;5.60;99.90;;;;;;5065997;28;20052;-91
2023/12/23 03:26:20;;;;;;;7.88;2.20;;;5.60;99.90;;;;;;5066291;28;20077;-90
2023/12/23 03:28:46;;;;;;;8.32;1.80;;;5.60;99.90;;;;;;5050050;28;20066;-91
2023/12/23 03:31:11;;;;;;;10.57;2.22;;;5.60;99.90;;;;;;5078670;28;20099;-91
2023/12/23 03:33:39;;;;;;;10.18;2.75;;;5.60;99.90;;;;;;5068286;28;20052;-90
2023/12/23 03:36:05;;;;;;;8.55;2.13;;;5.60;99.90;;;;;;5079994;28;20032;-92
2023/12/23 03:38:30;;;;;;;10.15;2.40;;;5.60;99.90;;;;;;5048080;28;20081;-91
2023/12/23 03:40:56;;;;;;;11.65;2.25;;;5.60;99.90;;;;;;5032192;28;20040;-91
2023/12/23 03:43:22;;;;;;;11.50;2.85;;;5.60;99.90;;;;;;5066834;28;20028;-90
2023/12/23 03:45:48;;;;;;;9.82;2.30;;;5.70;99.90;;;;;;5064593;28;20063;-90
2023/12/23 03:48:13;;;;;;;10.70;2.55;;;5.60;99.90;;;;;;5067984;28;20103;-90
2023/12/23 03:50:39;;;;;;;9.80;2.10;;;5.50;99.90;;;;;;5050114;28;20029;-91
2023/12/23 03:53:05;;;;;;;8.48;2.03;;;5.50;99.90;;;;;;5068407;28;20258;-91
2023/12/23 03:55:32;;;;;;;9.07;1.85;;;5.70;99.90;;;;;;5051535;28;20103;-91
2023/12/23 03:57:59;;;;;;;10.48;2.30;;;5.50;99.90;;;;;;5078823;28;20067;-92
2023/12/23 04:00:25;;;;;;;9.05;2.13;;;5.50;99.90;;;;;;5050385;28;20036;-92
2023/12/23 04:02:51;;;;;;;8.95;2.17;;;5.40;99.90;;;;;;5031773;28;20035;-91
2023/12/23 04:05:17;;;;;;;6.82;1.90;;;5.80;99.90;;;;;;5079048;28;20063;-91
2023/12/23 04:07:42;;;;;;;8.15;2.00;;;5.40;99.90;;;;;;5029402;28;20167;-91
2023/12/23 04:10:08;;;;;;;6.00;1.70;;;5.40;99.90;;;;;;5064038;28;20081;-91
2023/12/23 04:12:34;;;;;;;8.13;1.90;;;5.40;99.90;;;;;;5050510;28;20092;-91
2023/12/23 04:14:59;;;;;;;9.70;2.08;;;5.40;99.90;;;;;;5047830;28;20039;-90
2023/12/23 04:17:25;;;;;;;8.60;1.80;;;5.40;99.90;;;;;;5079243;28;20495;-91
2023/12/23 04:19:51;;;;;;;6.15;1.55;;;5.40;99.90;;;;;;5049741;28;20085;-91
2023/12/23 04:22:17;;;;;;;8.90;1.88;;;5.40;99.90;;;;;;5030536;28;20088;-90
2023/12/23 04:24:42;;;;;;;5.70;1.50;;;5.40;99.90;;;;;;5032553;28;20278;-91
2023/12/23 04:27:08;;;;;;;8.05;1.80;;;5.40;99.90;;;;;;5047887;28;20073;-91
2023/12/23 04:29:34;;;;;;;9.05;1.70;;;5.30;99.90;;;;;;5064582;28;20038;-91
2023/12/23 04:31:59;;;;;;;7.18;2.00;;;5.40;99.90;;;;;;5050021;28;20322;-91
2023/12/23 04:34:25;;;;;;;8.88;2.83;;;5.30;99.90;;;;;;5049665;28;20032;-90
2023/12/23 04:36:51;;;;;;;9.70;2.13;;;5.40;99.90;;;;;;5067768;28;20051;-92
2023/12/23 04:39:16;;;;;;;8.48;1.75;;;5.30;99.90;;;;;;5067144;28;20044;-91
2023/12/23 04:41:47;;;;;;;7.63;1.85;;;5.70;99.90;;;;;;5065575;28;20037;-93
2023/12/23 04:44:14;;;;;;;5.07;1.40;;;5.30;99.90;;;;;;5049743;28;20032;-93
2023/12/23 04:46:40;;;;;;;5.88;1.52;;;5.30;99.90;;;;;;5083296;28;20055;-92
2023/12/23 04:49:06;;;;;;;5.68;1.40;;;5.30;99.90;;;;;;5048378;28;20078;-93
2023/12/23 04:51:32;;;;;;;5.05;1.60;;;5.30;99.90;;;;;;5067736;28;20217;-93
2023/12/23 04:53:58;;;;;;;4.93;1.40;;;5.20;99.90;;;;;;5046150;28;20035;-93
2023/12/23 04:56:23;;;;;;;5.45;1.50;;;5.30;99.90;;;;;;5051217;28;20284;-93
2023/12/23 04:58:49;;;;;;;7.80;1.65;;;5.20;99.90;;;;;;5048055;28;20070;-93
2023/12/23 05:01:15;;;;;;;5.90;1.40;;;5.20;99.90;;;;;;5051572;28;20058;-91
2023/12/23 05:03:41;;;;;;;6.07;1.52;;;5.20;99.90;;;;;;5066105;28;20017;-91
2023/12/23 05:06:07;;;;;;;6.30;1.80;;;5.40;99.90;;;;;;5068474;28;20051;-92
2023/12/23 05:08:33;;;;;;;5.72;1.30;;;5.20;99.90;;;;;;5046994;28;20041;-92
2023/12/23 05:10:59;;;;;;;5.80;1.50;;;5.80;99.90;;;;;;5047177;28;20123;-92
2023/12/23 05:13:25;;;;;;;5.43;1.40;;;5.10;99.90;;;;;;5067260;28;20081;-92
2023/12/23 05:15:50;;;;;;;5.82;1.40;;;5.10;99.90;;;;;;5064035;28;20032;-92
2023/12/23 05:18:16;;;;;;;3.90;1.50;;;5.10;99.90;;;;;;5071209;28;20055;-91
2023/12/23 05:20:42;;;;;;;5.38;1.60;;;5.10;99.90;;;;;;5055321;28;20050;-93
2023/12/23 05:23:08;;;;;;;6.50;1.50;;;5.10;99.90;;;;;;5069581;28;20209;-92
2023/12/23 05:25:34;;;;;;;4.80;1.35;;;5.00;99.90;;;;;;5052687;28;20031;-91
2023/12/23 05:27:59;;;;;;;4.20;1.45;;;5.00;99.90;;;;;;5055505;28;20094;-92
2023/12/23 05:30:25;;;;;;;3.80;1.55;;;5.00;99.90;;;;;;5068374;28;20054;-92
2023/12/23 05:32:51;;;;;;;7.03;1.60;;;5.00;99.90;;;;;;5038202;28;20028;-92
2023/12/23 05:35:17;;;;;;;5.05;1.30;;;5.00;99.90;;;;;;5055723;28;20058;-92
2023/12/23 05:37:43;;;;;;;4.43;1.30;;;4.90;99.90;;;;;;5055275;28;20085;-92
2023/12/23 05:40:09;;;;;;;3.40;1.27;;;5.00;99.90;;;;;;5065859;28;20182;-90
2023/12/23 05:42:35;;;;;;;3.83;1.38;;;4.90;99.90;;;;;;5053245;28;20038;-91
2023/12/23 05:45:01;;;;;;;5.97;1.30;;;4.90;99.90;;;;;;5065267;28;20032;-92
2023/12/23 05:47:29;;;;;;;3.80;1.20;;;5.40;99.90;;;;;;5075841;28;20044;-92
2023/12/23 05:49:55;;;;;;;6.13;1.52;;;5.00;99.90;;;;;;5053689;28;20032;-91
2023/12/23 05:52:20;;;;;;;3.25;1.30;;;4.90;99.90;;;;;;5036898;28;20227;-92
2023/12/23 05:54:47;;;;;;;3.10;1.20;;;5.00;99.90;;;;;;5053641;28;20066;-92
2023/12/23 05:57:13;;;;;;;3.97;1.20;;;5.00;99.90;;;;;;5083696;28;20052;-91
2023/12/23 05:59:39;;;;;;;3.30;1.30;;;5.00;99.90;;;;;;5066631;28;20028;-93
2023/12/23 06:02:04;;;;;;;5.80;1.40;;;5.10;99.90;;;;;;5053821;28;20081;-92
2023/12/23 06:04:30;;;;;;;3.13;1.42;;;5.00;99.90;;;;;;5064602;28;20024;-91
2023/12/23 06:06:56;;;;;;;5.30;1.42;;;5.00;99.90;;;;;;5082315;28;20033;-93
2023/12/23 06:09:22;;;;;;;4.95;1.40;;;5.30;99.90;;;;;;5052894;28;20028;-92
2023/12/23 06:11:47;;;;;;;5.50;1.40;;;5.00;99.90;;;;;;5054504;28;20047;-92
2023/12/23 06:14:13;;;;;;;3.13;1.27;;;5.20;99.90;;;;;;5035578;28;20293;-91
2023/12/23 06:16:40;;;;;;;3.10;1.08;;;5.00;99.90;;;;;;5054426;28;20085;-92
2023/12/23 06:19:06;;;;;;;2.28;1.13;;;5.00;99.90;;;;;;5086717;28;20048;-92
2023/12/23 06:21:32;;;;;;;3.45;1.23;;;5.00;99.90;;;;;;5062617;28;20017;-92
2023/12/23 06:23:58;;;;;;;3.75;1.35;;;5.00;99.90;;;;;;5083852;28;20028;-91
2023/12/23 06:26:25;;;;;;;4.18;1.45;;;4.90;99.90;;;;;;5072226;28;20028;-92
2023/12/23 06:28:50;;;;;;;4.72;1.60;;;5.00;99.90;;;;;;5052974;28;20163;-93
2023/12/23 06:31:16;;;;;;;6.50;1.65;;;5.00;99.90;;;;;;5069573;28;20186;-91
2023/12/23 06:33:42;;;;;;;4.07;1.60;;;5.00;99.90;;;;;;5048126;28;20032;-92
2023/12/23 06:36:08;;;;;;;5.55;1.48;;;5.00;99.90;;;;;;5050485;28;20032;-93
2023/12/23 06:38:37;;;;;;;4.78;1.90;;;4.90;99.90;;;;;;5053620;28;20111;-92
2023/12/23 06:41:03;;;;;;;3.65;1.38;;;5.00;99.90;;;;;;5079927;28;20352;-92
2023/12/23 06:43:29;;;;;;;4.75;1.50;;;5.00;99.90;;;;;;5063869;28;20063;-88
2023/12/23 06:45:56;;;;;;;5.45;1.92;;;5.00;99.90;;;;;;5068899;28;20057;-92
2023/12/23 06:48:22;;;;;;;2.90;1.30;;;4.90;99.90;;;;;;5048049;28;20269;-90
2023/12/23 06:50:47;;;;;;;3.78;1.30;;;5.00;99.90;;;;;;5037923;28;20039;-92
2023/12/23 06:53:13;;;;;;;3.38;1.30;;;5.00;99.90;;;;;;5051779;28;20024;-90
2023/12/23 06:55:39;;;;;;;2.03;1.17;;;4.90;99.90;;;;;;5052048;28;20071;-90
2023/12/23 06:58:06;;;;;;;2.67;1.20;;;5.00;99.90;;;;;;5051299;28;20027;-91
2023/12/23 07:00:32;;;;;;;3.17;1.23;;;5.00;99.90;;;;;;5070611;28;20124;-91
2023/12/23 07:02:58;;;;;;;3.70;1.15;;;5.00;99.90;;;;;;5049565;28;20138;-91
2023/12/23 07:05:23;;;;;;;3.60;1.38;;;5.00;99.90;;;;;;5050737;28;20016;-91
2023/12/23 07:07:49;;;;;;;3.60;1.30;;;5.00;99.90;;;;;;5068212;28;20511;-90
2023/12/23 07:10:16;;;;;;;6.13;1.30;;;5.00;99.90;;;;;;5051765;28;20379;-90
2023/12/23 07:12:41;;;;;;;2.45;1.20;;;4.90;99.90;;;;;;5080486;28;20032;-93
2023/12/23 07:15:08;;;;;;;5.70;1.30;;;4.90;99.90;;;;;;5086705;28;20088;-92
2023/12/23 07:17:34;;;;;;;3.67;1.30;;;4.90;99.90;;;;;;5038068;28;20083;-91
2023/12/23 07:20:01;;;;;;;6.28;1.48;;;4.90;99.90;;;;;;5054415;28;20056;-92
2023/12/23 07:22:28;;;;;;;4.30;1.20;;;4.90;99.90;;;;;;5070010;28;20027;-93
2023/12/23 07:24:55;;;;;;;4.30;1.20;;;5.10;99.90;;;;;;5073213;28;20087;-92
2023/12/23 07:27:21;;;;;;;2.90;1.30;;;4.90;99.90;;;;;;5051124;28;20163;-92
2023/12/23 07:29:48;;;;;;;4.55;1.70;;;4.80;99.90;;;;;;5089651;28;20038;-92
2023/12/23 07:32:14;;;;;;;2.88;1.30;;;5.70;99.90;;;;;;5080490;28;20054;-90
2023/12/23 07:34:40;;;;;;;2.30;1.10;;;4.90;99.90;;;;;;5043989;28;20028;-92
2023/12/23 07:37:05;;;;;;;2.15;1.00;;;4.80;99.90;;;;;;5064718;28;20021;-91
2023/12/23 07:39:31;;;;;;;2.92;1.20;;;4.90;99.90;;;;;;5064747;28;20273;-92
2023/12/23 07:41:59;;;;;;;3.20;1.20;;;4.90;99.90;;;;;;5031979;28;20053;-92
2023/12/23 07:44:25;;;;;;;2.00;1.05;;;4.90;99.90;;;;;;5067180;28;20047;-91
2023/12/23 07:46:51;;;;;;;3.03;1.20;;;4.90;99.90;;;;;;5030936;28;20197;-91
2023/12/23 07:49:17;;;;;;;3.03;1.50;;;5.50;99.90;;;;;;5051187;28;20024;-91
2023/12/23 07:51:42;;;;;;;1.27;1.10;;;4.90;99.90;;;;;;5049873;28;20082;-92
2023/12/23 07:54:08;;;;;;;3.70;1.25;;;4.90;99.90;;;;;;5080699;28;20035;-91
2023/12/23 07:56:34;;;;;;;3.17;1.20;;;4.90;99.90;;;;;;5050061;28;20032;-92
2023/12/23 07:59:00;;;;;;;3.88;1.27;;;4.90;99.90;;;;;;5062614;28;20135;-90
2023/12/23 08:01:26;;;;;;;2.72;1.20;;;4.90;99.90;;;;;;5060159;28;20036;-91
2023/12/23 08:03:52;;;;;;;3.20;1.50;;;4.90;99.90;;;;;;5046156;28;20032;-92
2023/12/23 08:06:18;;;;;;;2.83;1.35;;;5.00;99.90;;;;;;5066745;28;20067;-92
2023/12/23 08:08:45;;;;;;;3.78;1.30;;;5.00;99.90;;;;;;5034618;28;20095;-92
2023/12/23 08:11:11;;;;;;;4.13;1.27;;;5.00;99.90;;;;;;5078871;28;20067;-93
2023/12/23 08:13:36;;;;;;;3.60;1.20;;;5.00;99.90;;;;;;5032072;28;20066;-93
2023/12/23 08:16:03;;;;;;;3.10;1.42;;;5.00;99.90;;;;;;5052411;28;20077;-92
2023/12/23 08:18:29;;;;;;;3.00;1.20;;;5.00;99.90;;;;;;5046246;28;20325;-91
2023/12/23 08:20:56;;;;;;;2.75;1.30;;;5.00;99.90;;;;;;5047830;28;20039;-92
2023/12/23 08:23:22;;;;;;;1.27;1.15;;;5.00;99.90;;;;;;5077879;28;20066;-92
2023/12/23 08:25:48;;;;;;;1.95;1.20;;;4.90;99.90;;;;;;5032742;28;20269;-91
2023/12/23 08:28:14;;;;;;;4.07;1.25;;;5.00;99.90;;;;;;5048690;28;20380;-92
2023/12/23 08:30:40;;;;;;;2.35;1.20;;;5.00;99.90;;;;;;5049981;28;20035;-92
2023/12/23 08:33:06;;;;;;;1.92;1.20;;;5.00;99.90;;;;;;5070427;28;20047;-92
2023/12/23 08:35:32;;;;;;;2.97;1.10;;;5.10;99.90;;;;;;5064580;28;20386;-91
2023/12/23 08:37:59;;;;;;;4.97;1.40;;;5.10;99.90;;;;;;5033954;28;20193;-92
2023/12/23 08:40:26;;;;;;;3.20;1.30;;;5.00;99.90;;;;;;5082943;28;20040;-93
2023/12/23 08:42:51;;;;;;;2.25;1.20;;;5.10;99.90;;;;;;5064688;28;20047;-92
2023/12/23 08:45:17;;;;;;;4.45;1.58;;;5.10;99.90;;;;;;5076836;28;20286;-92
2023/12/23 08:47:44;;;;;;;1.58;1.13;;;5.00;99.90;;;;;;5033552;28;20212;-92
2023/12/23 08:50:10;;;;;;;3.15;1.35;;;5.20;99.90;;;;;;5070995;28;20104;-93
2023/12/23 08:52:36;;;;;;;1.35;1.20;;;5.00;99.90;;;;;;5096471;28;20036;-92
2023/12/23 08:55:02;;;;;;;1.58;1.10;;;5.10;99.90;;;;;;5049812;28;20128;-93
2023/12/23 08:57:28;;;;;;;1.92;1.10;;;5.00;99.90;;;;;;5056471;28;20126;-92
2023/12/23 08:59:54;;;;;;;3.58;1.50;;;5.10;99.90;;;;;;5070699;28;20107;-93
2023/12/23 09:02:20;;;;;;;4.47;1.40;;;5.10;99.90;;;;;;5071070;28;20040;-92
2023/12/23 09:04:46;;;;;;;3.22;1.40;;;5.00;99.90;;;;;;5048427;28;20032;-92
2023/12/23 09:07:12;;;;;;;2.72;1.30;;;5.10;99.90;;;;;;5083174;28;20082;-92
2023/12/23 09:09:41;;;;;;;3.33;1.50;;;5.10;99.90;;;;;;5067296;28;20367;-92
2023/12/23 09:12:08;;;;;;;2.10;1.35;;;5.20;99.90;;;;;;5050100;28;20142;-94
2023/12/23 09:14:33;;;;;;;3.03;1.65;;;5.10;99.90;;;;;;5070667;28;20273;-92
2023/12/23 09:16:59;;;;;;;3.67;1.45;;;5.20;99.90;;;;;;5068664;28;20043;-92
2023/12/23 09:19:25;;;;;;;3.83;1.63;;;5.20;99.90;;;;;;5070138;28;20028;-92
2023/12/23 09:21:50;;;;;;;2.78;1.38;;;5.20;99.90;;;;;;5082385;28;20092;-90
2023/12/23 09:24:16;;;;;;;2.53;1.40;;;5.20;99.90;;;;;;5030614;28;20040;-93
2023/12/23 09:26:43;;;;;;;4.03;1.60;;;5.20;99.90;;;;;;5054023;28;20030;-91
2023/12/23 09:29:09;;;;;;;3.58;1.45;;;5.20;99.90;;;;;;5047975;28;20024;-90
2023/12/23 09:31:34;;;;;;;4.20;1.52;;;5.30;99.90;;;;;;5072469;28;20054;-91
2023/12/23 09:34:00;;;;;;;4.15;1.60;;;5.30;99.90;;;;;;5087725;28;20027;-91
2023/12/23 09:36:26;;;;;;;3.90;1.60;;;5.00;99.90;;;;;;5033704;28;20066;-92
2023/12/23 09:38:52;;;;;;;3.60;1.55;;;5.30;99.90;;;;;;5085555;28;20055;-91
2023/12/23 09:41:18;;;;;;;3.05;1.58;;;5.30;99.90;;;;;;5070364;28;20028;-91
2023/12/23 09:43:44;;;;;;;5.05;1.83;;;5.30;99.90;;;;;;5035371;28;20184;-91
2023/12/23 09:46:14;;;;;;;3.67;1.65;;;5.30;99.90;;;;;;5067784;28;20091;-90
2023/12/23 09:48:40;;;;;;;3.60;1.60;;;5.40;99.90;;;;;;5069524;28;20027;-91
2023/12/23 09:51:07;;;;;;;3.45;1.60;;;5.40;99.90;;;;;;5031687;28;20150;-91
2023/12/23 09:53:37;;;;;;;3.80;1.63;;;5.40;99.90;;;;;;5038563;28;20083;-91
2023/12/23 09:56:04;;;;;;;4.53;1.80;;;5.40;99.90;;;;;;5069893;28;20173;-91
2023/12/23 09:58:29;;;;;;;3.92;1.60;;;5.40;99.90;;;;;;5048949;28;20087;-91
2023/12/23 10:00:55;;;;;;;3.80;1.60;;;5.80;99.90;;;;;;5051913;28;20269;-90
2023/12/23 10:03:24;;;;;;;4.35;1.70;;;5.40;99.90;;;;;;5064201;28;20051;-91
2023/12/23 10:05:52;;;;;;;3.55;1.70;;;5.50;99.90;;;;;;5037564;28;20289;-92
2023/12/23 10:08:18;;;;;;;3.50;1.60;;;5.40;99.90;;;;;;5054863;28;20111;-92
2023/12/23 10:10:46;;;;;;;4.28;1.60;;;5.50;99.90;;;;;;5070560;28;20051;-92
2023/12/23 10:13:11;;;;;;;3.78;1.60;;;5.40;99.90;;;;;;5050186;28;20108;-92
2023/12/23 10:15:41;;;;;;;4.78;1.80;;;5.70;99.90;;;;;;5068551;28;20039;-91
2023/12/23 10:18:10;;;;;;;4.47;1.75;;;5.50;99.90;;;;;;5070611;28;20069;-92
2023/12/23 10:20:36;;;;;;;3.38;1.58;;;5.50;99.90;;;;;;5078864;28;20061;-91
2023/12/23 10:23:02;;;;;;;4.10;1.70;;;5.70;99.90;;;;;;5071644;28;20028;-91
2023/12/23 10:25:29;;;;;;;4.30;1.73;;;5.50;99.90;;;;;;5044692;28;20093;-91
2023/12/23 10:28:00;;;;;;;3.40;1.60;;;5.50;99.90;;;;;;5038440;28;20040;-92
2023/12/23 10:30:28;;;;;;;4.45;1.80;;;5.50;99.90;;;;;;5055010;28;20154;-92
2023/12/23 10:32:56;;;;;;;4.68;1.77;;;5.50;99.90;;;;;;5070555;28;20020;-92
2023/12/23 10:35:25;;;;;;;5.07;1.75;;;5.60;99.90;;;;;;5064993;28;20051;-91
2023/12/23 10:37:56;;;;;;;5.43;1.95;;;5.60;99.90;;;;;;5064331;28;20062;-92
2023/12/23 10:40:25;;;;;;;4.28;1.70;;;5.60;99.90;;;;;;5071341;28;20063;-92
2023/12/23 10:42:54;;;;;;;4.22;1.75;;;5.60;99.90;;;;;;5087531;28;20028;-91
2023/12/23 10:45:20;;;;;;;4.70;1.90;;;5.70;99.90;;;;;;5057442;28;20056;-92
2023/12/23 10:47:49;;;;;;;4.95;1.80;;;5.70;99.90;;;;;;5054802;28;20036;-92
2023/12/23 10:50:16;;;;;;;5.07;1.80;;;5.70;99.90;;;;;;5065012;28;20323;-92
2023/12/23 10:52:41;;;;;;;4.72;1.90;;;6.10;99.90;;;;;;5080158;28;20090;-92
2023/12/23 10:55:10;;;;;;;4.47;1.98;;;5.70;99.90;;;;;;5066972;28;20024;-92
2023/12/23 10:57:36;;;;;;;4.55;1.90;;;5.70;99.90;;;;;;5030375;28;20036;-92
2023/12/23 11:00:05;;;;;;;4.45;1.90;;;6.00;99.90;;;;;;5049170;28;20037;-92
2023/12/23 11:02:34;;;;;;;4.63;1.80;;;5.80;99.90;;;;;;5062839;28;20032;-93
2023/12/23 11:05:04;;;;;;;4.93;1.85;;;5.70;99.90;;;;;;5057215;28;20048;-91
2023/12/23 11:07:59;;;;;;;4.85;1.92;;;5.80;99.90;;;;;;5069991;28;20044;-91
2023/12/23 11:10:25;;;;;;;4.32;1.90;;;6.00;99.90;;;;;;5083550;28;20190;-92
2023/12/23 11:12:51;;;;;;;3.92;1.70;;;5.80;99.90;;;;;;5054070;28;20096;-91
2023/12/23 11:15:17;;;;;;;3.60;1.75;;;6.30;99.90;;;;;;5062267;28;20033;-91
2023/12/23 11:17:45;;;;;;;3.78;1.63;;;6.00;99.90;;;;;;5069877;28;20277;-92
2023/12/23 11:20:49;;;;;;;6.47;1.80;;;5.70;99.90;;;;;;5070150;28;20198;-92
2023/12/23 11:23:29;;;;;;;3.25;1.60;;;5.80;99.90;;;;;;5010330;28;20310;-92
2023/12/23 11:25:56;;;;;;;5.05;1.80;;;5.80;99.90;;;;;;5051728;28;20095;-92
2023/12/23 11:28:22;;;;;;;3.50;1.60;;;5.80;99.90;;;;;;5070172;28;20100;-92
2023/12/23 11:30:53;;;;;;;4.22;1.70;;;6.20;99.90;;;;;;5049845;28;20040;-92
2023/12/23 11:33:24;;;;;;;4.47;1.90;;;5.80;99.90;;;;;;5086150;28;20032;-91
2023/12/23 11:35:59;;;;;;;4.65;1.90;;;5.90;99.90;;;;;;5051364;28;20119;-92
2023/12/23 11:38:52;;;;;;;4.80;1.90;;;5.80;99.90;;;;;;5082970;28;20270;-90
2023/12/23 11:41:19;;;;;;;3.95;1.65;;;5.90;99.90;;;;;;5077858;28;20037;-91
2023/12/23 11:43:47;;;;;;;4.28;1.80;;;5.90;99.90;;;;;;5040778;28;20037;-91
2023/12/23 11:46:13;;;;;;;3.85;1.70;;;5.90;99.90;;;;;;5059370;28;20080;-91
2023/12/23 11:48:39;;;;;;;4.32;1.70;;;5.90;99.90;;;;;;5063665;28;20035;-91
2023/12/23 11:51:08;;;;;;;4.60;2.00;;;5.90;99.90;;;;;;5063119;28;20033;-90
2023/12/23 11:53:34;;;;;;;5.22;1.85;;;6.10;99.90;;;;;;5046398;28;20234;-91
2023/12/23 11:56:01;;;;;;;4.10;1.60;;;6.00;99.90;;;;;;5061324;28;20028;-90
2023/12/23 11:58:27;;;;;;;2.47;1.50;;;6.00;99.90;;;;;;5047202;28;20563;-91
2023/12/23 12:00:54;;;;;;;2.72;1.42;;;6.00;99.90;;;;;;5043577;28;20044;-91
2023/12/23 12:03:22;;;;;;;3.15;1.52;;;6.10;99.90;;;;;;5045675;28;20274;-91
2023/12/23 12:05:53;;;;;;;3.40;1.45;;;6.10;99.90;;;;;;5056909;28;20107;-91
2023/12/23 12:08:20;;;;;;;3.58;1.60;;;6.10;99.90;;;;;;5062337;28;20044;-91
2023/12/23 12:10:46;;;;;;;3.58;1.75;;;6.10;99.90;;;;;;5029860;28;20033;-91
2023/12/23 12:13:12;;;;;;;4.07;1.70;;;6.20;99.90;;;;;;5043522;28;20044;-90
2023/12/23 12:15:38;;;;;;;3.42;1.60;;;6.10;99.90;;;;;;5055091;28;20056;-89
2023/12/23 12:18:03;;;;;;;4.55;1.90;;;6.10;99.90;;;;;;5060968;28;20036;-92
2023/12/23 12:20:29;;;;;;;3.67;1.70;;;6.20;99.90;;;;;;5044885;28;20029;-93
2023/12/23 12:22:56;;;;;;;4.85;1.70;;;6.20;99.90;;;;;;5059525;28;20242;-90
2023/12/23 12:25:21;;;;;;;4.18;1.92;;;6.30;99.90;;;;;;5062364;28;20053;-92
2023/12/23 12:27:47;;;;;;;4.95;1.90;;;6.20;99.90;;;;;;5060582;28;20027;-92
2023/12/23 12:30:13;;;;;;;4.25;1.70;;;6.30;99.90;;;;;;5042321;28;20044;-91
2023/12/23 12:32:44;;;;;;;4.78;1.80;;;6.20;99.90;;;;;;5079285;28;20029;-92
2023/12/23 12:35:11;;;;;;;5.25;2.10;;;6.30;99.90;;;;;;5058418;28;20056;-91
2023/12/23 12:37:38;;;;;;;5.90;2.03;;;6.40;99.90;;;;;;5065493;28;20039;-89
2023/12/23 12:40:05;;;;;;;6.00;2.20;;;6.30;99.90;;;;;;5068131;28;20050;-91
2023/12/23 12:42:35;;;;;;;6.45;2.40;;;6.40;99.90;;;;;;5051413;28;20032;-92
2023/12/23 12:45:02;;;;;;;6.53;2.20;;;6.30;99.90;;;;;;5068076;28;20042;-92
2023/12/23 12:47:31;;;;;;;6.28;2.30;;;6.30;99.90;;;;;;5068141;28;20189;-92
2023/12/23 12:50:01;;;;;;;5.18;2.15;;;6.20;99.90;;;;;;5084794;28;20035;-92
2023/12/23 12:52:29;;;;;;;5.82;2.10;;;6.20;99.90;;;;;;5049481;28;20068;-92